<?xml version="1.0" encoding="UTF-8" standalone="no" ?>
<gpx xmlns="http://www.topografix.com/GPX/1/1" xmlns:xsi="http://www.w3.org/2001/XMLSchema-instance" xsi:schemaLocation="http://www.topografix.com/GPX/1/1 http://www.topografix.com/GPX/1/1/gpx.xsd" version="1.1" creator="VisuGPX - https://www.visugpx.com">
  <metadata>
    <name>Randonnée du 29/02/2020 à 09:26</name>
    <desc><![CDATA[
]]></desc>
  </metadata>
  <trk>
    <name><![CDATA[Randonnée du 29/02/2020 à 09:26]]></name>
    <trkseg>
      <trkpt lat="43.72852" lon="7.33784">
        <ele>589</ele>
        <time>2020-02-29T09:23:04 01:00</time>
      </trkpt>
      <trkpt lat="43.72871" lon="7.33769">
        <ele>588</ele>
        <time>2020-02-29T09:29:37 01:00</time>
      </trkpt>
      <trkpt lat="43.72889" lon="7.33749">
        <ele>591</ele>
        <time>2020-02-29T09:30:20 01:00</time>
      </trkpt>
      <trkpt lat="43.72904" lon="7.33751">
        <ele>529</ele>
      </trkpt>
      <trkpt lat="43.72909" lon="7.33734">
        <ele>588</ele>
        <time>2020-02-29T09:31:54 01:00</time>
      </trkpt>
      <trkpt lat="43.72915" lon="7.33704">
        <ele>585</ele>
        <time>2020-02-29T09:32:18 01:00</time>
      </trkpt>
      <trkpt lat="43.72923" lon="7.33674">
        <ele>583</ele>
        <time>2020-02-29T09:32:48 01:00</time>
      </trkpt>
      <trkpt lat="43.72935" lon="7.33648">
        <ele>586</ele>
        <time>2020-02-29T09:33:09 01:00</time>
      </trkpt>
      <trkpt lat="43.72946" lon="7.3362">
        <ele>582</ele>
        <time>2020-02-29T09:33:34 01:00</time>
      </trkpt>
      <trkpt lat="43.72954" lon="7.3359">
        <ele>578</ele>
        <time>2020-02-29T09:34:11 01:00</time>
      </trkpt>
      <trkpt lat="43.72964" lon="7.33561">
        <ele>576</ele>
        <time>2020-02-29T09:34:31 01:00</time>
      </trkpt>
      <trkpt lat="43.72965" lon="7.33528">
        <ele>575</ele>
        <time>2020-02-29T09:34:51 01:00</time>
      </trkpt>
      <trkpt lat="43.72966" lon="7.33497">
        <ele>578</ele>
        <time>2020-02-29T09:35:11 01:00</time>
      </trkpt>
      <trkpt lat="43.72957" lon="7.33467">
        <ele>579</ele>
        <time>2020-02-29T09:35:32 01:00</time>
      </trkpt>
      <trkpt lat="43.72942" lon="7.33442">
        <ele>582</ele>
        <time>2020-02-29T09:35:50 01:00</time>
      </trkpt>
      <trkpt lat="43.72931" lon="7.33414">
        <ele>587</ele>
        <time>2020-02-29T09:36:09 01:00</time>
      </trkpt>
      <trkpt lat="43.72921" lon="7.33386">
        <ele>579</ele>
        <time>2020-02-29T09:36:44 01:00</time>
      </trkpt>
      <trkpt lat="43.72907" lon="7.3336">
        <ele>586</ele>
        <time>2020-02-29T09:37:37 01:00</time>
      </trkpt>
      <trkpt lat="43.72888" lon="7.33343">
        <ele>587</ele>
        <time>2020-02-29T09:37:57 01:00</time>
      </trkpt>
      <trkpt lat="43.72867" lon="7.33331">
        <ele>584</ele>
        <time>2020-02-29T09:38:22 01:00</time>
      </trkpt>
      <trkpt lat="43.72848" lon="7.33312">
        <ele>579</ele>
        <time>2020-02-29T09:38:42 01:00</time>
      </trkpt>
      <trkpt lat="43.72832" lon="7.3329">
        <ele>579</ele>
        <time>2020-02-29T09:39:00 01:00</time>
      </trkpt>
      <trkpt lat="43.72819" lon="7.33264">
        <ele>579</ele>
        <time>2020-02-29T09:39:20 01:00</time>
      </trkpt>
      <trkpt lat="43.72808" lon="7.33237">
        <ele>579</ele>
        <time>2020-02-29T09:39:36 01:00</time>
      </trkpt>
      <trkpt lat="43.72803" lon="7.33206">
        <ele>578</ele>
        <time>2020-02-29T09:39:56 01:00</time>
      </trkpt>
      <trkpt lat="43.728" lon="7.33176">
        <ele>527.5</ele>
      </trkpt>
      <trkpt lat="43.72796" lon="7.33145">
        <ele>573</ele>
        <time>2020-02-29T09:40:47 01:00</time>
      </trkpt>
      <trkpt lat="43.72796" lon="7.33126">
        <ele>527</ele>
      </trkpt>
      <trkpt lat="43.72797" lon="7.33108">
        <ele>526.5</ele>
      </trkpt>
      <trkpt lat="43.72797" lon="7.33084">
        <ele>526.1</ele>
      </trkpt>
      <trkpt lat="43.72797" lon="7.3305">
        <ele>526.2</ele>
      </trkpt>
      <trkpt lat="43.72799" lon="7.33019">
        <ele>525.6</ele>
      </trkpt>
      <trkpt lat="43.72806" lon="7.32986">
        <ele>564</ele>
        <time>2020-02-29T09:42:20 01:00</time>
      </trkpt>
      <trkpt lat="43.7281" lon="7.32956">
        <ele>562</ele>
        <time>2020-02-29T09:42:37 01:00</time>
      </trkpt>
      <trkpt lat="43.72812" lon="7.32926">
        <ele>521</ele>
      </trkpt>
      <trkpt lat="43.72814" lon="7.32893">
        <ele>520.9</ele>
      </trkpt>
      <trkpt lat="43.72815" lon="7.32861">
        <ele>520.4</ele>
      </trkpt>
      <trkpt lat="43.72816" lon="7.32828">
        <ele>515.9</ele>
      </trkpt>
      <trkpt lat="43.72814" lon="7.32796">
        <ele>565</ele>
        <time>2020-02-29T09:44:13 01:00</time>
      </trkpt>
      <trkpt lat="43.72808" lon="7.32765">
        <ele>564</ele>
        <time>2020-02-29T09:44:34 01:00</time>
      </trkpt>
      <trkpt lat="43.72803" lon="7.3275">
        <ele>518</ele>
      </trkpt>
      <trkpt lat="43.72803" lon="7.32732">
        <ele>518.1</ele>
      </trkpt>
      <trkpt lat="43.72813" lon="7.32701">
        <ele>517.1</ele>
      </trkpt>
      <trkpt lat="43.72815" lon="7.32671">
        <ele>514</ele>
      </trkpt>
      <trkpt lat="43.72816" lon="7.3264">
        <ele>556</ele>
        <time>2020-02-29T09:45:56 01:00</time>
      </trkpt>
      <trkpt lat="43.72809" lon="7.32606">
        <ele>514.6</ele>
      </trkpt>
      <trkpt lat="43.72799" lon="7.32581">
        <ele>514</ele>
      </trkpt>
      <trkpt lat="43.72784" lon="7.32555">
        <ele>517.6</ele>
      </trkpt>
      <trkpt lat="43.72779" lon="7.32528">
        <ele>518.2</ele>
      </trkpt>
      <trkpt lat="43.72776" lon="7.32509">
        <ele>520</ele>
      </trkpt>
      <trkpt lat="43.7278" lon="7.32489">
        <ele>519.4</ele>
      </trkpt>
      <trkpt lat="43.7279" lon="7.32462">
        <ele>517.2</ele>
      </trkpt>
      <trkpt lat="43.72801" lon="7.32433">
        <ele>555</ele>
        <time>2020-02-29T09:48:07 01:00</time>
      </trkpt>
      <trkpt lat="43.72807" lon="7.32403">
        <ele>561</ele>
        <time>2020-02-29T09:48:25 01:00</time>
      </trkpt>
      <trkpt lat="43.72807" lon="7.32371">
        <ele>567</ele>
        <time>2020-02-29T09:49:09 01:00</time>
      </trkpt>
      <trkpt lat="43.72803" lon="7.3234">
        <ele>567</ele>
        <time>2020-02-29T09:49:29 01:00</time>
      </trkpt>
      <trkpt lat="43.72796" lon="7.3231">
        <ele>566</ele>
        <time>2020-02-29T09:49:49 01:00</time>
      </trkpt>
      <trkpt lat="43.72782" lon="7.32285">
        <ele>568</ele>
        <time>2020-02-29T09:50:10 01:00</time>
      </trkpt>
      <trkpt lat="43.72764" lon="7.32264">
        <ele>570</ele>
        <time>2020-02-29T09:50:26 01:00</time>
      </trkpt>
      <trkpt lat="43.72742" lon="7.32254">
        <ele>582</ele>
        <time>2020-02-29T09:50:49 01:00</time>
      </trkpt>
      <trkpt lat="43.72718" lon="7.32249">
        <ele>590</ele>
        <time>2020-02-29T09:51:09 01:00</time>
      </trkpt>
      <trkpt lat="43.72696" lon="7.32242">
        <ele>596</ele>
        <time>2020-02-29T09:51:30 01:00</time>
      </trkpt>
      <trkpt lat="43.72673" lon="7.32236">
        <ele>597</ele>
        <time>2020-02-29T09:51:54 01:00</time>
      </trkpt>
      <trkpt lat="43.7265" lon="7.32226">
        <ele>595</ele>
        <time>2020-02-29T09:52:15 01:00</time>
      </trkpt>
      <trkpt lat="43.72631" lon="7.32208">
        <ele>592</ele>
        <time>2020-02-29T09:52:36 01:00</time>
      </trkpt>
      <trkpt lat="43.72611" lon="7.32192">
        <ele>597</ele>
        <time>2020-02-29T09:52:58 01:00</time>
      </trkpt>
      <trkpt lat="43.72589" lon="7.32184">
        <ele>607</ele>
        <time>2020-02-29T09:53:20 01:00</time>
      </trkpt>
      <trkpt lat="43.72567" lon="7.32193">
        <ele>613</ele>
        <time>2020-02-29T09:53:44 01:00</time>
      </trkpt>
      <trkpt lat="43.72544" lon="7.32201">
        <ele>613</ele>
        <time>2020-02-29T09:54:23 01:00</time>
      </trkpt>
      <trkpt lat="43.72526" lon="7.3222">
        <ele>610</ele>
        <time>2020-02-29T09:54:46 01:00</time>
      </trkpt>
      <trkpt lat="43.72518" lon="7.3225">
        <ele>611</ele>
        <time>2020-02-29T09:55:07 01:00</time>
      </trkpt>
      <trkpt lat="43.72504" lon="7.32275">
        <ele>612</ele>
        <time>2020-02-29T09:55:26 01:00</time>
      </trkpt>
      <trkpt lat="43.72497" lon="7.32288">
        <ele>543</ele>
      </trkpt>
      <trkpt lat="43.72501" lon="7.32311">
        <ele>552.4</ele>
      </trkpt>
      <trkpt lat="43.72488" lon="7.32328">
        <ele>549.1</ele>
      </trkpt>
      <trkpt lat="43.72474" lon="7.32355">
        <ele>551.8</ele>
      </trkpt>
      <trkpt lat="43.72458" lon="7.32376">
        <ele>551.5</ele>
      </trkpt>
      <trkpt lat="43.72444" lon="7.32401">
        <ele>552.4</ele>
      </trkpt>
      <trkpt lat="43.72427" lon="7.3242">
        <ele>556.1</ele>
      </trkpt>
      <trkpt lat="43.72407" lon="7.32442">
        <ele>554.1</ele>
      </trkpt>
      <trkpt lat="43.72386" lon="7.32459">
        <ele>626</ele>
        <time>2020-02-29T09:58:09 01:00</time>
      </trkpt>
      <trkpt lat="43.72367" lon="7.32477">
        <ele>626</ele>
        <time>2020-02-29T09:58:26 01:00</time>
      </trkpt>
      <trkpt lat="43.7235" lon="7.32499">
        <ele>626</ele>
        <time>2020-02-29T09:58:44 01:00</time>
      </trkpt>
      <trkpt lat="43.72341" lon="7.32514">
        <ele>556</ele>
      </trkpt>
      <trkpt lat="43.72342" lon="7.32529">
        <ele>627</ele>
        <time>2020-02-29T09:59:04 01:00</time>
      </trkpt>
      <trkpt lat="43.72352" lon="7.32555">
        <ele>557</ele>
      </trkpt>
      <trkpt lat="43.72363" lon="7.32542">
        <ele>619</ele>
        <time>2020-02-29T10:01:46 01:00</time>
      </trkpt>
      <trkpt lat="43.72375" lon="7.32543">
        <ele>559</ele>
      </trkpt>
      <trkpt lat="43.72382" lon="7.32561">
        <ele>559.1</ele>
      </trkpt>
      <trkpt lat="43.72391" lon="7.32571">
        <ele>560</ele>
      </trkpt>
      <trkpt lat="43.724" lon="7.32574">
        <ele>560.6</ele>
      </trkpt>
      <trkpt lat="43.72412" lon="7.32572">
        <ele>561</ele>
      </trkpt>
      <trkpt lat="43.72421" lon="7.32565">
        <ele>562.9</ele>
      </trkpt>
      <trkpt lat="43.72431" lon="7.32555">
        <ele>563</ele>
      </trkpt>
      <trkpt lat="43.72443" lon="7.32554">
        <ele>621</ele>
        <time>2020-02-29T10:03:37 01:00</time>
      </trkpt>
      <trkpt lat="43.7246" lon="7.32574">
        <ele>624</ele>
        <time>2020-02-29T10:04:12 01:00</time>
      </trkpt>
      <trkpt lat="43.72477" lon="7.32596">
        <ele>623</ele>
        <time>2020-02-29T10:04:30 01:00</time>
      </trkpt>
      <trkpt lat="43.72479" lon="7.32604">
        <ele>561</ele>
      </trkpt>
      <trkpt lat="43.72473" lon="7.32627">
        <ele>620</ele>
        <time>2020-02-29T10:05:10 01:00</time>
      </trkpt>
      <trkpt lat="43.72467" lon="7.32638">
        <ele>560</ele>
      </trkpt>
      <trkpt lat="43.7247" lon="7.32662">
        <ele>560.3</ele>
      </trkpt>
      <trkpt lat="43.72462" lon="7.32691">
        <ele>558.7</ele>
      </trkpt>
      <trkpt lat="43.72453" lon="7.32719">
        <ele>558.2</ele>
      </trkpt>
      <trkpt lat="43.72448" lon="7.3275">
        <ele>557.4</ele>
      </trkpt>
      <trkpt lat="43.72442" lon="7.3278">
        <ele>625</ele>
        <time>2020-02-29T10:06:47 01:00</time>
      </trkpt>
      <trkpt lat="43.72436" lon="7.32809">
        <ele>556.3</ele>
      </trkpt>
      <trkpt lat="43.72436" lon="7.32827">
        <ele>556</ele>
      </trkpt>
      <trkpt lat="43.72431" lon="7.32843">
        <ele>555.2</ele>
      </trkpt>
      <trkpt lat="43.72437" lon="7.32862">
        <ele>556</ele>
      </trkpt>
      <trkpt lat="43.72434" lon="7.32884">
        <ele>556</ele>
      </trkpt>
      <trkpt lat="43.72436" lon="7.32909">
        <ele>621</ele>
        <time>2020-02-29T10:08:14 01:00</time>
      </trkpt>
      <trkpt lat="43.72419" lon="7.32931">
        <ele>554</ele>
      </trkpt>
      <trkpt lat="43.72418" lon="7.3295">
        <ele>554</ele>
      </trkpt>
      <trkpt lat="43.72422" lon="7.32966">
        <ele>612</ele>
        <time>2020-02-29T10:10:21 01:00</time>
      </trkpt>
      <trkpt lat="43.72433" lon="7.32994">
        <ele>611</ele>
        <time>2020-02-29T10:10:40 01:00</time>
      </trkpt>
      <trkpt lat="43.72428" lon="7.33032">
        <ele>550.5</ele>
      </trkpt>
      <trkpt lat="43.7244" lon="7.33057">
        <ele>610</ele>
        <time>2020-02-29T10:11:19 01:00</time>
      </trkpt>
      <trkpt lat="43.72455" lon="7.33079">
        <ele>549.7</ele>
      </trkpt>
      <trkpt lat="43.72465" lon="7.33086">
        <ele>547</ele>
      </trkpt>
      <trkpt lat="43.7247" lon="7.33089">
        <ele>547</ele>
      </trkpt>
      <trkpt lat="43.72475" lon="7.33097">
        <ele>547.6</ele>
      </trkpt>
      <trkpt lat="43.72472" lon="7.33138">
        <ele>600</ele>
        <time>2020-02-29T10:12:42 01:00</time>
      </trkpt>
      <trkpt lat="43.72466" lon="7.33167">
        <ele>543.2</ele>
      </trkpt>
      <trkpt lat="43.7246" lon="7.33191">
        <ele>542.1</ele>
      </trkpt>
      <trkpt lat="43.72462" lon="7.33204">
        <ele>542</ele>
      </trkpt>
      <trkpt lat="43.72461" lon="7.33229">
        <ele>541.1</ele>
      </trkpt>
      <trkpt lat="43.72466" lon="7.33241">
        <ele>541</ele>
      </trkpt>
      <trkpt lat="43.72481" lon="7.33249">
        <ele>542.4</ele>
      </trkpt>
      <trkpt lat="43.72495" lon="7.33246">
        <ele>543</ele>
      </trkpt>
      <trkpt lat="43.72512" lon="7.33252">
        <ele>542.7</ele>
      </trkpt>
      <trkpt lat="43.72513" lon="7.33223">
        <ele>546.2</ele>
      </trkpt>
      <trkpt lat="43.72513" lon="7.33191">
        <ele>594</ele>
        <time>2020-02-29T10:18:07 01:00</time>
      </trkpt>
      <trkpt lat="43.72506" lon="7.33168">
        <ele>548.6</ele>
      </trkpt>
      <trkpt lat="43.72505" lon="7.33149">
        <ele>550</ele>
      </trkpt>
      <trkpt lat="43.72509" lon="7.33131">
        <ele>551</ele>
      </trkpt>
      <trkpt lat="43.72513" lon="7.331">
        <ele>551.5</ele>
      </trkpt>
      <trkpt lat="43.72516" lon="7.3308">
        <ele>553.6</ele>
      </trkpt>
      <trkpt lat="43.72515" lon="7.33049">
        <ele>555</ele>
      </trkpt>
      <trkpt lat="43.72524" lon="7.33037">
        <ele>556.2</ele>
      </trkpt>
      <trkpt lat="43.72527" lon="7.33016">
        <ele>557</ele>
      </trkpt>
      <trkpt lat="43.72535" lon="7.33005">
        <ele>557</ele>
      </trkpt>
      <trkpt lat="43.72538" lon="7.32992">
        <ele>560.2</ele>
      </trkpt>
      <trkpt lat="43.72542" lon="7.32974">
        <ele>560.5</ele>
      </trkpt>
      <trkpt lat="43.72543" lon="7.32954">
        <ele>560.8</ele>
      </trkpt>
      <trkpt lat="43.72542" lon="7.3293">
        <ele>561.1</ele>
      </trkpt>
      <trkpt lat="43.72541" lon="7.32897">
        <ele>562</ele>
      </trkpt>
      <trkpt lat="43.72548" lon="7.32871">
        <ele>562</ele>
      </trkpt>
      <trkpt lat="43.72548" lon="7.32852">
        <ele>562</ele>
      </trkpt>
      <trkpt lat="43.72553" lon="7.32851">
        <ele>562</ele>
      </trkpt>
      <trkpt lat="43.72566" lon="7.3286">
        <ele>562.1</ele>
      </trkpt>
      <trkpt lat="43.72574" lon="7.32861">
        <ele>562</ele>
      </trkpt>
      <trkpt lat="43.7258" lon="7.32853">
        <ele>562</ele>
      </trkpt>
      <trkpt lat="43.72585" lon="7.32835">
        <ele>561.9</ele>
      </trkpt>
      <trkpt lat="43.72592" lon="7.32807">
        <ele>559.4</ele>
      </trkpt>
      <trkpt lat="43.72612" lon="7.32781">
        <ele>606</ele>
        <time>2020-02-29T10:31:04 01:00</time>
      </trkpt>
      <trkpt lat="43.72624" lon="7.32755">
        <ele>605</ele>
        <time>2020-02-29T10:31:23 01:00</time>
      </trkpt>
      <trkpt lat="43.72627" lon="7.32737">
        <ele>556</ele>
      </trkpt>
      <trkpt lat="43.7262" lon="7.32721">
        <ele>556.2</ele>
      </trkpt>
      <trkpt lat="43.72625" lon="7.32679">
        <ele>556.2</ele>
      </trkpt>
      <trkpt lat="43.72617" lon="7.3266">
        <ele>556.1</ele>
      </trkpt>
      <trkpt lat="43.72607" lon="7.32644">
        <ele>556.3</ele>
      </trkpt>
      <trkpt lat="43.72603" lon="7.32623">
        <ele>556</ele>
      </trkpt>
      <trkpt lat="43.72601" lon="7.32611">
        <ele>556.1</ele>
      </trkpt>
      <trkpt lat="43.72593" lon="7.32599">
        <ele>557</ele>
      </trkpt>
      <trkpt lat="43.72585" lon="7.32594">
        <ele>557.1</ele>
      </trkpt>
      <trkpt lat="43.72574" lon="7.32568">
        <ele>559</ele>
      </trkpt>
      <trkpt lat="43.72562" lon="7.32562">
        <ele>559</ele>
      </trkpt>
      <trkpt lat="43.72548" lon="7.32567">
        <ele>559.2</ele>
      </trkpt>
      <trkpt lat="43.72532" lon="7.32582">
        <ele>559.6</ele>
      </trkpt>
      <trkpt lat="43.72523" lon="7.32589">
        <ele>560</ele>
      </trkpt>
      <trkpt lat="43.7251" lon="7.32594">
        <ele>560.4</ele>
      </trkpt>
      <trkpt lat="43.72489" lon="7.32605">
        <ele>618</ele>
        <time>2020-02-29T10:37:02 01:00</time>
      </trkpt>
      <trkpt lat="43.7247" lon="7.3259">
        <ele>614</ele>
        <time>2020-02-29T10:37:45 01:00</time>
      </trkpt>
      <trkpt lat="43.72451" lon="7.32574">
        <ele>609</ele>
        <time>2020-02-29T10:38:10 01:00</time>
      </trkpt>
      <trkpt lat="43.72436" lon="7.3255">
        <ele>562.8</ele>
      </trkpt>
      <trkpt lat="43.72438" lon="7.32539">
        <ele>563</ele>
      </trkpt>
      <trkpt lat="43.72437" lon="7.32528">
        <ele>563</ele>
      </trkpt>
      <trkpt lat="43.72425" lon="7.32517">
        <ele>563.7</ele>
      </trkpt>
      <trkpt lat="43.7241" lon="7.32514">
        <ele>562</ele>
      </trkpt>
      <trkpt lat="43.724" lon="7.32509">
        <ele>561.6</ele>
      </trkpt>
      <trkpt lat="43.724" lon="7.32493">
        <ele>559</ele>
      </trkpt>
      <trkpt lat="43.72406" lon="7.32476">
        <ele>557.5</ele>
      </trkpt>
      <trkpt lat="43.72423" lon="7.32459">
        <ele>607</ele>
        <time>2020-02-29T10:41:03 01:00</time>
      </trkpt>
      <trkpt lat="43.7243" lon="7.32444">
        <ele>559</ele>
      </trkpt>
      <trkpt lat="43.72442" lon="7.3244">
        <ele>610</ele>
        <time>2020-02-29T10:44:14 01:00</time>
      </trkpt>
      <trkpt lat="43.7246" lon="7.32422">
        <ele>604</ele>
        <time>2020-02-29T10:45:06 01:00</time>
      </trkpt>
      <trkpt lat="43.72482" lon="7.32409">
        <ele>603</ele>
        <time>2020-02-29T10:45:34 01:00</time>
      </trkpt>
      <trkpt lat="43.72498" lon="7.32387">
        <ele>601</ele>
        <time>2020-02-29T10:46:09 01:00</time>
      </trkpt>
      <trkpt lat="43.72519" lon="7.32372">
        <ele>599</ele>
        <time>2020-02-29T10:46:40 01:00</time>
      </trkpt>
      <trkpt lat="43.72537" lon="7.32355">
        <ele>600</ele>
        <time>2020-02-29T10:47:18 01:00</time>
      </trkpt>
      <trkpt lat="43.72547" lon="7.32326">
        <ele>599</ele>
        <time>2020-02-29T10:47:53 01:00</time>
      </trkpt>
      <trkpt lat="43.7256" lon="7.323">
        <ele>601</ele>
        <time>2020-02-29T10:48:24 01:00</time>
      </trkpt>
      <trkpt lat="43.72577" lon="7.32279">
        <ele>599</ele>
        <time>2020-02-29T10:49:10 01:00</time>
      </trkpt>
      <trkpt lat="43.72583" lon="7.32248">
        <ele>599</ele>
        <time>2020-02-29T10:49:51 01:00</time>
      </trkpt>
      <trkpt lat="43.72596" lon="7.32223">
        <ele>596</ele>
        <time>2020-02-29T10:50:32 01:00</time>
      </trkpt>
      <trkpt lat="43.72609" lon="7.32197">
        <ele>591</ele>
        <time>2020-02-29T10:52:18 01:00</time>
      </trkpt>
      <trkpt lat="43.7263" lon="7.32207">
        <ele>589</ele>
        <time>2020-02-29T10:55:22 01:00</time>
      </trkpt>
      <trkpt lat="43.72649" lon="7.32225">
        <ele>594</ele>
        <time>2020-02-29T10:55:48 01:00</time>
      </trkpt>
      <trkpt lat="43.72668" lon="7.32242">
        <ele>590</ele>
        <time>2020-02-29T10:56:16 01:00</time>
      </trkpt>
      <trkpt lat="43.72691" lon="7.3225">
        <ele>587</ele>
        <time>2020-02-29T10:56:38 01:00</time>
      </trkpt>
      <trkpt lat="43.72714" lon="7.32253">
        <ele>584</ele>
        <time>2020-02-29T10:56:58 01:00</time>
      </trkpt>
      <trkpt lat="43.72737" lon="7.32257">
        <ele>577</ele>
        <time>2020-02-29T10:57:24 01:00</time>
      </trkpt>
      <trkpt lat="43.7276" lon="7.32259">
        <ele>574</ele>
        <time>2020-02-29T10:57:49 01:00</time>
      </trkpt>
      <trkpt lat="43.72779" lon="7.32277">
        <ele>576</ele>
        <time>2020-02-29T10:58:08 01:00</time>
      </trkpt>
      <trkpt lat="43.72793" lon="7.32302">
        <ele>575</ele>
        <time>2020-02-29T10:58:27 01:00</time>
      </trkpt>
      <trkpt lat="43.72799" lon="7.32333">
        <ele>574</ele>
        <time>2020-02-29T10:58:47 01:00</time>
      </trkpt>
      <trkpt lat="43.72805" lon="7.32362">
        <ele>574</ele>
        <time>2020-02-29T10:59:05 01:00</time>
      </trkpt>
      <trkpt lat="43.72807" lon="7.32394">
        <ele>570</ele>
        <time>2020-02-29T10:59:25 01:00</time>
      </trkpt>
      <trkpt lat="43.728" lon="7.32424">
        <ele>569</ele>
        <time>2020-02-29T10:59:46 01:00</time>
      </trkpt>
      <trkpt lat="43.72788" lon="7.32451">
        <ele>518.2</ele>
      </trkpt>
      <trkpt lat="43.72777" lon="7.32479">
        <ele>520</ele>
      </trkpt>
      <trkpt lat="43.72771" lon="7.32505">
        <ele>521.6</ele>
      </trkpt>
      <trkpt lat="43.72775" lon="7.32536">
        <ele>518.9</ele>
      </trkpt>
      <trkpt lat="43.72783" lon="7.32563">
        <ele>518.2</ele>
      </trkpt>
      <trkpt lat="43.72793" lon="7.32586">
        <ele>517.9</ele>
      </trkpt>
      <trkpt lat="43.72804" lon="7.3261">
        <ele>516</ele>
      </trkpt>
      <trkpt lat="43.7281" lon="7.32637">
        <ele>515.8</ele>
      </trkpt>
      <trkpt lat="43.7281" lon="7.3267">
        <ele>564</ele>
        <time>2020-02-29T11:02:29 01:00</time>
      </trkpt>
      <trkpt lat="43.72806" lon="7.32702">
        <ele>563</ele>
        <time>2020-02-29T11:02:49 01:00</time>
      </trkpt>
      <trkpt lat="43.72797" lon="7.32734">
        <ele>519</ele>
      </trkpt>
      <trkpt lat="43.72798" lon="7.32747">
        <ele>518.9</ele>
      </trkpt>
      <trkpt lat="43.72803" lon="7.32764">
        <ele>519.2</ele>
      </trkpt>
      <trkpt lat="43.72808" lon="7.32798">
        <ele>519.5</ele>
      </trkpt>
      <trkpt lat="43.7281" lon="7.32829">
        <ele>517.5</ele>
      </trkpt>
      <trkpt lat="43.72811" lon="7.3286">
        <ele>564</ele>
        <time>2020-02-29T11:08:02 01:00</time>
      </trkpt>
      <trkpt lat="43.72809" lon="7.32891">
        <ele>560</ele>
        <time>2020-02-29T11:08:20 01:00</time>
      </trkpt>
      <trkpt lat="43.72808" lon="7.32923">
        <ele>559</ele>
        <time>2020-02-29T11:08:39 01:00</time>
      </trkpt>
      <trkpt lat="43.72804" lon="7.32952">
        <ele>524.9</ele>
      </trkpt>
      <trkpt lat="43.728" lon="7.32985">
        <ele>559</ele>
        <time>2020-02-29T11:09:18 01:00</time>
      </trkpt>
      <trkpt lat="43.72796" lon="7.33016">
        <ele>556</ele>
        <time>2020-02-29T11:09:38 01:00</time>
      </trkpt>
      <trkpt lat="43.72792" lon="7.33031">
        <ele>527</ele>
      </trkpt>
      <trkpt lat="43.72793" lon="7.33046">
        <ele>526.8</ele>
      </trkpt>
      <trkpt lat="43.72793" lon="7.33089">
        <ele>527</ele>
      </trkpt>
      <trkpt lat="43.72791" lon="7.33112">
        <ele>527.4</ele>
      </trkpt>
      <trkpt lat="43.72791" lon="7.33153">
        <ele>528</ele>
      </trkpt>
      <trkpt lat="43.72796" lon="7.33175">
        <ele>528.1</ele>
      </trkpt>
      <trkpt lat="43.72797" lon="7.33207">
        <ele>528.4</ele>
      </trkpt>
      <trkpt lat="43.72797" lon="7.33229">
        <ele>528</ele>
      </trkpt>
      <trkpt lat="43.72803" lon="7.3324">
        <ele>527.6</ele>
      </trkpt>
      <trkpt lat="43.72814" lon="7.33273">
        <ele>530</ele>
      </trkpt>
      <trkpt lat="43.72827" lon="7.33298">
        <ele>531.6</ele>
      </trkpt>
      <trkpt lat="43.72844" lon="7.33322">
        <ele>524.1</ele>
      </trkpt>
      <trkpt lat="43.72864" lon="7.33338">
        <ele>527.8</ele>
      </trkpt>
      <trkpt lat="43.72886" lon="7.3335">
        <ele>567</ele>
        <time>2020-02-29T11:13:34 01:00</time>
      </trkpt>
      <trkpt lat="43.72904" lon="7.33369">
        <ele>572</ele>
        <time>2020-02-29T11:13:53 01:00</time>
      </trkpt>
      <trkpt lat="43.72918" lon="7.33394">
        <ele>515.2</ele>
      </trkpt>
      <trkpt lat="43.72927" lon="7.33423">
        <ele>574</ele>
        <time>2020-02-29T11:14:32 01:00</time>
      </trkpt>
      <trkpt lat="43.72941" lon="7.33448">
        <ele>574</ele>
        <time>2020-02-29T11:14:51 01:00</time>
      </trkpt>
      <trkpt lat="43.72954" lon="7.33475">
        <ele>574</ele>
        <time>2020-02-29T11:15:11 01:00</time>
      </trkpt>
      <trkpt lat="43.72961" lon="7.33505">
        <ele>571</ele>
        <time>2020-02-29T11:15:31 01:00</time>
      </trkpt>
      <trkpt lat="43.72959" lon="7.33538">
        <ele>521.3</ele>
      </trkpt>
      <trkpt lat="43.72956" lon="7.33568">
        <ele>564</ele>
        <time>2020-02-29T11:16:14 01:00</time>
      </trkpt>
      <trkpt lat="43.72946" lon="7.33597">
        <ele>565</ele>
        <time>2020-02-29T11:16:36 01:00</time>
      </trkpt>
      <trkpt lat="43.72937" lon="7.33626">
        <ele>563</ele>
        <time>2020-02-29T11:16:57 01:00</time>
      </trkpt>
      <trkpt lat="43.7293" lon="7.33656">
        <ele>562</ele>
        <time>2020-02-29T11:17:18 01:00</time>
      </trkpt>
      <trkpt lat="43.7292" lon="7.33686">
        <ele>560</ele>
        <time>2020-02-29T11:17:39 01:00</time>
      </trkpt>
      <trkpt lat="43.72909" lon="7.33713">
        <ele>560</ele>
        <time>2020-02-29T11:18:01 01:00</time>
      </trkpt>
      <trkpt lat="43.72906" lon="7.33728">
        <ele>532</ele>
      </trkpt>
      <trkpt lat="43.72901" lon="7.33741">
        <ele>531.4</ele>
      </trkpt>
      <trkpt lat="43.72878" lon="7.33759">
        <ele>570</ele>
        <time>2020-02-29T11:19:00 01:00</time>
      </trkpt>
      <trkpt lat="43.7286" lon="7.33778">
        <ele>571</ele>
        <time>2020-02-29T11:19:34 01:00</time>
      </trkpt>
    </trkseg>
  </trk>
</gpx>